CheckWX is a tool to help pilots better visualize weather data.  It is not intended as a substitute for an official pre-flight weather briefing.

12:30:56 UTC

RPLB TAF
Subic Bay International Airport
Olongapo City, Philippines
TAF RPLB 131100Z 1312/1412 08008KT 9999 FEW020 SCT300 TX32/1406Z TN23/1321Z TEMPO 1312/1318 06010KT SCT020 BKN300

Dec-13@
12:00 UTC

Dec-13 @ 12:00 UTC

Dec-14@
12:00 UTC

Dec-14 @ 12:00 UTC

TAF RPLB 131100Z 1312/1412 08008KT 9999 FEW020 SCT300 TX32/1406Z TN23/1321Z
Wind
  • 080° at 8 KTS
Cloud Levels
  • Few at 2,000' AGL
  • Scattered at 30,000' AGL

Dec-13@
12:00 UTC

Dec-13 @ 12:00 UTC

Dec-13@
18:00 UTC

Dec-13 @ 18:00 UTC

TEMPO 1312/1318 06010KT SCT020 BKN300

Temporary

Temporary Changes expected for less than half the time period

Wind
  • 060° at 10 KTS
Cloud Levels
  • Scattered at 2,000' AGL
  • Broken at 30,000' AGL